sensor_id;sensor_type;location;lat;lon;timestamp;P1;durP1;ratioP1;P2;durP2;ratioP2
39016;SDS011;24784;45.582;5.276;2022-12-07T06:14:57;79.35;;;24.65;;
39016;SDS011;24784;45.582;5.276;2022-12-07T06:17:23;77.82;;;23.27;;
39016;SDS011;24784;45.582;5.276;2022-12-07T06:19:49;74.75;;;25.42;;
39016;SDS011;24784;45.582;5.276;2022-12-07T06:22:15;74.60;;;22.88;;
39016;SDS011;24784;45.582;5.276;2022-12-07T06:24:42;77.40;;;24.08;;
39016;SDS011;24784;45.582;5.276;2022-12-07T06:27:09;82.93;;;24.92;;
39016;SDS011;24784;45.582;5.276;2022-12-07T06:29:35;81.00;;;24.23;;
39016;SDS011;24784;45.582;5.276;2022-12-07T06:32:01;79.22;;;23.90;;
39016;SDS011;24784;45.582;5.276;2022-12-07T06:34:27;93.28;;;25.77;;
39016;SDS011;24784;45.582;5.276;2022-12-07T06:36:53;77.40;;;24.17;;
39016;SDS011;24784;45.582;5.276;2022-12-07T06:39:21;91.03;;;24.92;;
39016;SDS011;24784;45.582;5.276;2022-12-07T06:41:49;88.35;;;24.80;;
39016;SDS011;24784;45.582;5.276;2022-12-07T06:44:17;88.35;;;24.05;;
39016;SDS011;24784;45.582;5.276;2022-12-07T06:46:43;87.18;;;25.50;;
39016;SDS011;24784;45.582;5.276;2022-12-07T06:49:09;98.72;;;25.70;;
39016;SDS011;24784;45.582;5.276;2022-12-07T06:51:35;87.78;;;23.95;;
39016;SDS011;24784;45.582;5.276;2022-12-07T06:54:05;89.22;;;25.58;;
39016;SDS011;24784;45.582;5.276;2022-12-07T06:56:32;91.45;;;25.25;;
39016;SDS011;24784;45.582;5.276;2022-12-07T06:58:58;88.88;;;23.88;;
39016;SDS011;24784;45.582;5.276;2022-12-07T07:01:24;95.38;;;25.50;;
39016;SDS011;24784;45.582;5.276;2022-12-07T07:03:49;81.75;;;24.13;;
39016;SDS011;24784;45.582;5.276;2022-12-07T07:06:15;81.18;;;23.48;;
39016;SDS011;24784;45.582;5.276;2022-12-07T07:08:41;83.93;;;23.23;;
39016;SDS011;24784;45.582;5.276;2022-12-07T07:11:07;90.25;;;25.77;;
39016;SDS011;24784;45.582;5.276;2022-12-07T07:13:34;81.38;;;24.25;;
39016;SDS011;24784;45.582;5.276;2022-12-07T07:16:00;85.70;;;23.85;;
39016;SDS011;24784;45.582;5.276;2022-12-07T07:18:26;77.47;;;21.73;;
39016;SDS011;24784;45.582;5.276;2022-12-07T07:20:52;80.63;;;22.73;;
39016;SDS011;24784;45.582;5.276;2022-12-07T07:23:19;78.95;;;20.75;;
39016;SDS011;24784;45.582;5.276;2022-12-07T07:25:46;79.40;;;22.67;;
39016;SDS011;24784;45.582;5.276;2022-12-07T07:28:12;71.00;;;20.75;;
39016;SDS011;24784;45.582;5.276;2022-12-07T07:30:38;74.63;;;22.10;;
39016;SDS011;24784;45.582;5.276;2022-12-07T07:33:04;72.75;;;21.60;;
39016;SDS011;24784;45.582;5.276;2022-12-07T07:35:31;77.80;;;22.00;;
39016;SDS011;24784;45.582;5.276;2022-12-07T07:37:59;73.10;;;20.00;;
39016;SDS011;24784;45.582;5.276;2022-12-07T07:40:25;63.08;;;19.70;;
39016;SDS011;24784;45.582;5.276;2022-12-07T07:42:52;76.72;;;20.95;;
39016;SDS011;24784;45.582;5.276;2022-12-07T07:45:19;71.28;;;20.55;;
39016;SDS011;24784;45.582;5.276;2022-12-07T07:47:46;69.88;;;20.30;;
39016;SDS011;24784;45.582;5.276;2022-12-07T07:50:15;73.72;;;19.33;;
39016;SDS011;24784;45.582;5.276;2022-12-07T07:52:41;69.90;;;18.50;;
39016;SDS011;24784;45.582;5.276;2022-12-07T07:55:07;64.22;;;19.58;;
39016;SDS011;24784;45.582;5.276;2022-12-07T07:57:34;63.08;;;18.80;;
39016;SDS011;24784;45.582;5.276;2022-12-07T08:00:05;64.28;;;18.73;;
39016;SDS011;24784;45.582;5.276;2022-12-07T08:02:33;65.47;;;19.33;;
39016;SDS011;24784;45.582;5.276;2022-12-07T08:04:59;66.78;;;19.33;;
39016;SDS011;24784;45.582;5.276;2022-12-07T08:07:25;58.58;;;17.58;;
39016;SDS011;24784;45.582;5.276;2022-12-07T08:09:52;59.17;;;16.95;;
39016;SDS011;24784;45.582;5.276;2022-12-07T08:12:18;54.22;;;16.23;;
39016;SDS011;24784;45.582;5.276;2022-12-07T08:14:44;55.53;;;16.88;;
39016;SDS011;24784;45.582;5.276;2022-12-07T08:17:10;51.38;;;17.30;;
39016;SDS011;24784;45.582;5.276;2022-12-07T08:19:36;53.92;;;17.17;;
39016;SDS011;24784;45.582;5.276;2022-12-07T08:22:01;56.67;;;16.02;;
39016;SDS011;24784;45.582;5.276;2022-12-07T08:24:36;52.65;;;15.45;;
39016;SDS011;24784;45.582;5.276;2022-12-07T08:27:05;55.28;;;17.02;;
39016;SDS011;24784;45.582;5.276;2022-12-07T08:29:31;51.47;;;16.92;;
39016;SDS011;24784;45.582;5.276;2022-12-07T08:32:00;42.83;;;15.38;;
39016;SDS011;24784;45.582;5.276;2022-12-07T08:34:26;58.88;;;17.00;;
39016;SDS011;24784;45.582;5.276;2022-12-07T08:36:58;54.20;;;16.73;;
39016;SDS011;24784;45.582;5.276;2022-12-07T08:39:29;56.90;;;16.85;;
39016;SDS011;24784;45.582;5.276;2022-12-07T08:42:04;47.10;;;16.45;;
39016;SDS011;24784;45.582;5.276;2022-12-07T08:44:30;53.67;;;18.10;;
39016;SDS011;24784;45.582;5.276;2022-12-07T08:46:57;52.85;;;16.73;;
39016;SDS011;24784;45.582;5.276;2022-12-07T08:49:27;49.20;;;15.65;;
39016;SDS011;24784;45.582;5.276;2022-12-07T08:51:58;48.15;;;16.17;;
39016;SDS011;24784;45.582;5.276;2022-12-07T08:54:24;48.33;;;16.55;;
39016;SDS011;24784;45.582;5.276;2022-12-07T08:56:50;45.67;;;15.70;;
39016;SDS011;24784;45.582;5.276;2022-12-07T08:59:18;45.47;;;14.80;;
39016;SDS011;24784;45.582;5.276;2022-12-07T09:01:47;53.42;;;17.80;;
39016;SDS011;24784;45.582;5.276;2022-12-07T09:04:13;51.78;;;17.15;;
39016;SDS011;24784;45.582;5.276;2022-12-07T09:06:40;54.38;;;17.88;;
39016;SDS011;24784;45.582;5.276;2022-12-07T09:09:16;51.72;;;17.42;;
39016;SDS011;24784;45.582;5.276;2022-12-07T09:11:47;52.72;;;17.45;;
39016;SDS011;24784;45.582;5.276;2022-12-07T09:14:16;52.22;;;17.70;;
39016;SDS011;24784;45.582;5.276;2022-12-07T09:16:43;45.78;;;16.80;;
39016;SDS011;24784;45.582;5.276;2022-12-07T09:19:09;49.05;;;17.67;;
39016;SDS011;24784;45.582;5.276;2022-12-07T09:21:38;52.90;;;17.48;;
39016;SDS011;24784;45.582;5.276;2022-12-07T09:24:11;47.95;;;17.65;;
39016;SDS011;24784;45.582;5.276;2022-12-07T09:26:38;44.90;;;16.10;;
39016;SDS011;24784;45.582;5.276;2022-12-07T09:29:08;55.42;;;17.10;;
39016;SDS011;24784;45.582;5.276;2022-12-07T09:31:37;48.38;;;17.52;;
39016;SDS011;24784;45.582;5.276;2022-12-07T09:36:38;58.63;;;17.35;;
39016;SDS011;24784;45.582;5.276;2022-12-07T09:39:07;55.53;;;17.77;;
39016;SDS011;24784;45.582;5.276;2022-12-07T09:41:33;54.28;;;17.50;;
39016;SDS011;24784;45.582;5.276;2022-12-07T09:44:05;49.45;;;17.13;;
39016;SDS011;24784;45.582;5.276;2022-12-07T09:46:44;47.92;;;18.13;;
39016;SDS011;24784;45.582;5.276;2022-12-07T09:49:21;59.30;;;17.40;;
39016;SDS011;24784;45.582;5.276;2022-12-07T09:51:59;61.25;;;19.77;;
39016;SDS011;24784;45.582;5.276;2022-12-07T09:54:46;61.80;;;21.15;;
39016;SDS011;24784;45.582;5.276;2022-12-07T09:57:14;50.55;;;19.58;;
39016;SDS011;24784;45.582;5.276;2022-12-07T09:59:43;58.75;;;20.52;;
39016;SDS011;24784;45.582;5.276;2022-12-07T10:02:23;57.85;;;19.80;;
39016;SDS011;24784;45.582;5.276;2022-12-07T10:05:01;46.97;;;18.58;;
39016;SDS011;24784;45.582;5.276;2022-12-07T10:07:30;55.75;;;20.05;;
39016;SDS011;24784;45.582;5.276;2022-12-07T10:09:56;51.15;;;19.27;;
39016;SDS011;24784;45.582;5.276;2022-12-07T10:12:29;59.72;;;20.02;;
39016;SDS011;24784;45.582;5.276;2022-12-07T10:15:02;57.80;;;19.70;;
39016;SDS011;24784;45.582;5.276;2022-12-07T10:17:37;54.67;;;20.13;;
39016;SDS011;24784;45.582;5.276;2022-12-07T10:20:20;55.58;;;20.08;;
39016;SDS011;24784;45.582;5.276;2022-12-07T10:23:04;55.10;;;19.08;;
39016;SDS011;24784;45.582;5.276;2022-12-07T10:25:38;49.97;;;18.88;;
39016;SDS011;24784;45.582;5.276;2022-12-07T10:30:33;50.90;;;18.30;;
39016;SDS011;24784;45.582;5.276;2022-12-07T10:44:30;50.63;;;17.10;;
39016;SDS011;24784;45.582;5.276;2022-12-07T10:50:08;48.13;;;18.35;;
39016;SDS011;24784;45.582;5.276;2022-12-07T10:59:18;46.35;;;17.88;;
39016;SDS011;24784;45.582;5.276;2022-12-07T11:08:04;42.05;;;17.30;;
39016;SDS011;24784;45.582;5.276;2022-12-07T11:13:51;47.22;;;17.50;;
39016;SDS011;24784;45.582;5.276;2022-12-07T11:21:56;43.58;;;19.02;;
39016;SDS011;24784;45.582;5.276;2022-12-07T11:24:32;49.85;;;19.20;;
39016;SDS011;24784;45.582;5.276;2022-12-07T11:30:18;46.88;;;18.00;;
39016;SDS011;24784;45.582;5.276;2022-12-07T11:38:20;48.40;;;19.10;;
39016;SDS011;24784;45.582;5.276;2022-12-07T11:40:53;49.97;;;20.85;;
39016;SDS011;24784;45.582;5.276;2022-12-07T11:43:37;52.05;;;20.60;;
39016;SDS011;24784;45.582;5.276;2022-12-07T11:46:21;53.40;;;21.33;;
39016;SDS011;24784;45.582;5.276;2022-12-07T11:49:08;53.40;;;20.92;;
39016;SDS011;24784;45.582;5.276;2022-12-07T11:51:58;61.55;;;21.92;;
39016;SDS011;24784;45.582;5.276;2022-12-07T11:54:40;49.53;;;19.83;;
39016;SDS011;24784;45.582;5.276;2022-12-07T11:57:25;49.78;;;19.75;;
39016;SDS011;24784;45.582;5.276;2022-12-07T12:00:05;48.72;;;19.83;;
39016;SDS011;24784;45.582;5.276;2022-12-07T12:05:19;51.13;;;19.88;;
39016;SDS011;24784;45.582;5.276;2022-12-07T12:07:48;53.03;;;20.42;;
39016;SDS011;24784;45.582;5.276;2022-12-07T12:10:30;50.00;;;19.92;;
39016;SDS011;24784;45.582;5.276;2022-12-07T12:19:10;50.08;;;20.90;;
39016;SDS011;24784;45.582;5.276;2022-12-07T12:21:53;52.88;;;21.48;;
39016;SDS011;24784;45.582;5.276;2022-12-07T12:24:48;50.70;;;20.98;;
39016;SDS011;24784;45.582;5.276;2022-12-07T12:48:26;45.83;;;19.45;;
39016;SDS011;24784;45.582;5.276;2022-12-07T13:00:00;45.22;;;19.48;;
39016;SDS011;24784;45.582;5.276;2022-12-07T13:10:26;43.70;;;19.80;;
39016;SDS011;24784;45.582;5.276;2022-12-07T14:00:01;31.58;;;16.65;;
39016;SDS011;24784;45.582;5.276;2022-12-07T16:01:24;37.30;;;17.30;;
